Time;durP1;ratioP1;P1;durP2;ratioP2;P2;SDS_P1;SDS_P2;PMS_P1;PMS_P2;Temp;Humidity;BMP_temperature;BMP_pressure;BME280_temperature;BME280_humidity;BME280_pressure;Samples;Min_cycle;Max_cycle;Signal;HPM_P1;HPM_P2
2024/01/13 00:02:17;;;;;;;18.27;10.95;;;;;;;;;;4805461;29;20055;-78
2024/01/13 00:04:44;;;;;;;19.63;12.25;;;;;;;;;;4814942;29;20055;-78
2024/01/13 00:07:10;;;;;;;18.13;11.25;;;;;;;;;;4803299;29;20055;-80
2024/01/13 00:09:39;;;;;;;16.38;11.43;;;;;;;;;;4793016;29;20276;-78
2024/01/13 00:12:06;;;;;;;17.60;11.57;;;;;;;;;;4798083;29;20170;-76
2024/01/13 00:14:33;;;;;;;14.88;11.38;;;;;;;;;;4790707;29;20385;-76
2024/01/13 00:16:59;;;;;;;14.32;11.15;;;;;;;;;;4814659;29;20154;-77
2024/01/13 00:19:26;;;;;;;15.77;11.70;;;;;;;;;;4802108;29;20472;-76
2024/01/13 00:21:52;;;;;;;15.48;11.77;;;;;;;;;;4810193;29;20080;-78
2024/01/13 00:24:19;;;;;;;16.77;11.35;;;;;;;;;;4797023;29;20066;-78
2024/01/13 00:26:47;;;;;;;14.90;11.00;;;;;;;;;;4792488;29;20098;-79
2024/01/13 00:29:13;;;;;;;15.50;11.07;;;;;;;;;;4802638;29;20155;-80
2024/01/13 00:31:40;;;;;;;16.50;11.32;;;;;;;;;;4809446;29;20371;-76
2024/01/13 00:34:06;;;;;;;16.38;11.65;;;;;;;;;;4803844;29;20058;-76
2024/01/13 00:36:33;;;;;;;21.85;13.07;;;;;;;;;;4812053;29;20454;-76
2024/01/13 00:39:00;;;;;;;18.15;13.13;;;;;;;;;;4777110;29;20070;-76
2024/01/13 00:41:26;;;;;;;16.17;13.05;;;;;;;;;;4795282;29;20057;-77
2024/01/13 00:43:52;;;;;;;18.13;12.90;;;;;;;;;;4782265;29;20435;-77
2024/01/13 00:46:19;;;;;;;23.60;15.02;;;;;;;;;;4794261;29;20161;-74
2024/01/13 00:48:45;;;;;;;23.73;14.95;;;;;;;;;;4794432;29;20058;-74
2024/01/13 00:51:12;;;;;;;20.27;14.27;;;;;;;;;;4778752;29;20043;-75
2024/01/13 00:53:40;;;;;;;24.60;15.40;;;;;;;;;;4795170;29;20092;-74
2024/01/13 00:56:07;;;;;;;25.70;16.58;;;;;;;;;;4787822;29;20058;-75
2024/01/13 00:58:34;;;;;;;27.00;16.75;;;;;;;;;;4787284;29;20099;-75
2024/01/13 01:01:10;;;;;;;31.63;18.25;;;;;;;;;;4791417;29;20082;-73
2024/01/13 01:03:37;;;;;;;37.20;18.88;;;;;;;;;;4786429;29;20514;-74
2024/01/13 01:06:04;;;;;;;33.10;18.63;;;;;;;;;;4795362;29;20647;-73
2024/01/13 01:08:31;;;;;;;32.10;18.15;;;;;;;;;;4777239;29;20047;-75
2024/01/13 01:11:05;;;;;;;37.95;19.42;;;;;;;;;;4793013;29;20094;-73
2024/01/13 01:13:32;;;;;;;35.97;18.73;;;;;;;;;;4786779;29;20121;-76
2024/01/13 01:15:59;;;;;;;35.47;20.48;;;;;;;;;;4808018;29;20090;-75
2024/01/13 01:18:25;;;;;;;39.50;21.10;;;;;;;;;;4785373;29;20576;-76
2024/01/13 01:21:08;;;;;;;36.15;20.52;;;;;;;;;;4785961;29;20070;-77
2024/01/13 01:23:36;;;;;;;39.10;21.23;;;;;;;;;;4799811;29;20107;-77
2024/01/13 01:26:02;;;;;;;45.08;22.45;;;;;;;;;;4787677;29;20051;-75
2024/01/13 01:28:29;;;;;;;35.78;20.65;;;;;;;;;;4791225;29;20046;-76
2024/01/13 01:31:01;;;;;;;41.13;21.83;;;;;;;;;;4795959;29;20051;-75
2024/01/13 01:33:28;;;;;;;31.90;18.52;;;;;;;;;;4807696;29;20478;-77
2024/01/13 01:35:55;;;;;;;31.48;19.88;;;;;;;;;;4791189;29;20519;-76
2024/01/13 01:38:22;;;;;;;32.75;20.15;;;;;;;;;;4807530;29;20059;-76
2024/01/13 01:41:05;;;;;;;38.35;19.38;;;;;;;;;;4799356;29;20050;-77
2024/01/13 01:43:31;;;;;;;38.47;21.10;;;;;;;;;;4791427;29;20119;-77
2024/01/13 01:45:59;;;;;;;31.42;18.90;;;;;;;;;;4808677;29;20082;-76
2024/01/13 01:48:34;;;;;;;32.60;19.13;;;;;;;;;;4811584;29;20055;-77
2024/01/13 01:51:07;;;;;;;35.47;19.92;;;;;;;;;;4804504;29;20058;-77
2024/01/13 01:53:35;;;;;;;30.90;18.70;;;;;;;;;;4801256;29;20070;-76
2024/01/13 01:56:04;;;;;;;31.15;18.95;;;;;;;;;;4801374;29;20050;-76
2024/01/13 01:58:31;;;;;;;30.00;18.45;;;;;;;;;;4797251;29;20051;-76
2024/01/13 02:01:02;;;;;;;27.52;17.35;;;;;;;;;;4786547;29;20057;-78
2024/01/13 02:03:29;;;;;;;32.47;18.23;;;;;;;;;;4795038;29;20051;-76
2024/01/13 02:05:58;;;;;;;28.42;16.67;;;;;;;;;;4800078;29;20057;-80
2024/01/13 02:08:25;;;;;;;28.73;16.75;;;;;;;;;;4792280;29;20046;-79
2024/01/13 02:11:04;;;;;;;31.17;16.55;;;;;;;;;;4798043;29;20059;-80
2024/01/13 02:13:31;;;;;;;28.08;14.88;;;;;;;;;;4793352;29;20462;-79
2024/01/13 02:15:57;;;;;;;26.98;15.43;;;;;;;;;;4793276;29;20065;-79
2024/01/13 02:18:24;;;;;;;23.85;15.48;;;;;;;;;;4793384;29;20055;-79
2024/01/13 02:21:04;;;;;;;24.92;15.40;;;;;;;;;;4809093;29;20062;-79
2024/01/13 02:23:31;;;;;;;23.15;14.48;;;;;;;;;;4797928;29;20530;-80
2024/01/13 02:25:57;;;;;;;22.90;14.48;;;;;;;;;;4795221;29;20082;-79
2024/01/13 02:28:24;;;;;;;21.02;13.77;;;;;;;;;;4798440;29;20137;-79
2024/01/13 02:31:08;;;;;;;23.35;13.90;;;;;;;;;;4800375;29;20417;-79
2024/01/13 02:33:34;;;;;;;23.98;13.80;;;;;;;;;;4792843;29;20502;-78
2024/01/13 02:36:01;;;;;;;23.63;12.93;;;;;;;;;;4817599;29;20658;-76
2024/01/13 02:38:28;;;;;;;20.48;13.15;;;;;;;;;;4793364;29;20055;-78
2024/01/13 02:41:03;;;;;;;22.95;13.35;;;;;;;;;;4805581;29;20089;-78
2024/01/13 02:43:30;;;;;;;19.15;11.48;;;;;;;;;;4785900;29;20131;-78
2024/01/13 02:45:56;;;;;;;19.67;12.07;;;;;;;;;;4785942;29;20071;-77
2024/01/13 02:48:23;;;;;;;17.42;11.05;;;;;;;;;;4789503;29;20142;-78
2024/01/13 02:51:05;;;;;;;17.10;10.05;;;;;;;;;;4785755;29;20053;-78
2024/01/13 02:53:31;;;;;;;19.23;10.73;;;;;;;;;;4791908;29;20193;-78
2024/01/13 02:55:58;;;;;;;18.13;10.43;;;;;;;;;;4785097;29;20128;-78
2024/01/13 02:58:24;;;;;;;21.48;11.13;;;;;;;;;;4789917;29;20169;-78
2024/01/13 03:01:09;;;;;;;17.98;9.57;;;;;;;;;;4787828;29;20059;-77
2024/01/13 03:03:36;;;;;;;15.75;10.05;;;;;;;;;;4793592;29;20092;-78
2024/01/13 03:06:03;;;;;;;16.80;9.93;;;;;;;;;;4781827;29;20430;-79
2024/01/13 03:08:31;;;;;;;19.67;10.18;;;;;;;;;;4798021;29;20522;-78
2024/01/13 03:11:07;;;;;;;16.02;9.82;;;;;;;;;;4799384;29;20054;-77
2024/01/13 03:13:34;;;;;;;14.85;9.23;;;;;;;;;;4791878;29;20062;-78
2024/01/13 03:16:01;;;;;;;14.48;9.00;;;;;;;;;;4780088;29;20820;-79
2024/01/13 03:18:28;;;;;;;16.30;9.63;;;;;;;;;;4792243;29;20063;-79
2024/01/13 03:21:05;;;;;;;16.75;9.02;;;;;;;;;;4783022;29;20070;-79
2024/01/13 03:23:32;;;;;;;16.23;9.20;;;;;;;;;;4778970;29;20059;-78
2024/01/13 03:25:58;;;;;;;18.65;9.95;;;;;;;;;;4786508;29;20096;-77
2024/01/13 03:28:25;;;;;;;16.15;9.88;;;;;;;;;;4790335;29;20062;-79
2024/01/13 03:31:05;;;;;;;18.70;10.00;;;;;;;;;;4797235;29;20055;-79
2024/01/13 03:33:31;;;;;;;16.40;9.63;;;;;;;;;;4804096;29;20051;-80
2024/01/13 03:35:58;;;;;;;16.30;9.70;;;;;;;;;;4793395;29;20061;-79
2024/01/13 03:38:26;;;;;;;23.60;11.38;;;;;;;;;;4800677;29;20067;-80
2024/01/13 03:41:06;;;;;;;18.42;10.60;;;;;;;;;;4784975;29;20062;-77
2024/01/13 03:43:32;;;;;;;19.52;10.32;;;;;;;;;;4781973;29;20174;-79
2024/01/13 03:45:58;;;;;;;19.13;11.43;;;;;;;;;;4782115;29;20055;-79
2024/01/13 03:48:25;;;;;;;21.15;11.68;;;;;;;;;;4792672;29;20063;-79
2024/01/13 03:50:52;;;;;;;21.13;11.98;;;;;;;;;;4808000;29;20067;-79
2024/01/13 03:53:18;;;;;;;28.00;13.70;;;;;;;;;;4803066;29;20058;-77
2024/01/13 03:55:45;;;;;;;22.50;12.90;;;;;;;;;;4793190;29;20062;-78
2024/01/13 03:58:11;;;;;;;22.88;13.20;;;;;;;;;;4796825;29;20115;-79
2024/01/13 04:00:37;;;;;;;24.02;14.07;;;;;;;;;;4800553;29;20497;-79
2024/01/13 04:03:04;;;;;;;25.52;13.57;;;;;;;;;;4792469;29;20108;-78
2024/01/13 04:05:31;;;;;;;27.48;15.00;;;;;;;;;;4786725;29;20059;-80
2024/01/13 04:07:58;;;;;;;25.17;14.65;;;;;;;;;;4809025;29;20050;-79
2024/01/13 04:10:24;;;;;;;29.17;16.20;;;;;;;;;;4792775;29;20050;-79
2024/01/13 04:12:51;;;;;;;27.67;17.60;;;;;;;;;;4792268;29;20059;-79
2024/01/13 04:15:18;;;;;;;29.50;17.48;;;;;;;;;;4797608;29;20667;-77
2024/01/13 04:17:44;;;;;;;27.25;16.80;;;;;;;;;;4790295;29;20158;-79
2024/01/13 04:20:11;;;;;;;29.83;18.23;;;;;;;;;;4799874;29;20527;-81
2024/01/13 04:22:38;;;;;;;30.90;18.35;;;;;;;;;;4794274;29;20050;-81
2024/01/13 04:25:05;;;;;;;31.83;19.33;;;;;;;;;;4811018;29;20063;-80
2024/01/13 04:27:32;;;;;;;29.83;18.60;;;;;;;;;;4798530;29;20051;-80
2024/01/13 04:29:58;;;;;;;30.88;19.05;;;;;;;;;;4791596;29;20786;-80
2024/01/13 04:32:25;;;;;;;31.83;18.60;;;;;;;;;;4795336;29;20051;-80
2024/01/13 04:34:51;;;;;;;32.90;19.73;;;;;;;;;;4791485;29;20067;-79
2024/01/13 04:37:18;;;;;;;32.97;17.80;;;;;;;;;;4810931;29;20150;-78
2024/01/13 04:39:44;;;;;;;28.65;16.70;;;;;;;;;;4809801;29;20059;-80
2024/01/13 04:42:11;;;;;;;28.15;18.95;;;;;;;;;;4791437;29;20070;-79
2024/01/13 04:44:37;;;;;;;26.73;18.75;;;;;;;;;;4796749;29;20051;-79
2024/01/13 04:47:04;;;;;;;29.23;17.73;;;;;;;;;;4789410;29;20062;-79
2024/01/13 04:49:31;;;;;;;31.08;18.42;;;;;;;;;;4795179;29;20054;-79
2024/01/13 04:51:57;;;;;;;24.48;18.25;;;;;;;;;;4785288;29;20496;-80
2024/01/13 04:54:24;;;;;;;26.90;17.63;;;;;;;;;;4791540;29;20063;-79
2024/01/13 04:56:50;;;;;;;24.85;16.48;;;;;;;;;;4794790;29;20063;-79
2024/01/13 04:59:17;;;;;;;26.42;17.42;;;;;;;;;;4798494;29;20496;-79
2024/01/13 05:01:43;;;;;;;27.75;18.65;;;;;;;;;;4792910;29;20520;-77
2024/01/13 05:04:10;;;;;;;27.92;18.02;;;;;;;;;;4789629;29;20717;-80
2024/01/13 05:06:36;;;;;;;28.70;18.50;;;;;;;;;;4806588;29;20058;-78
2024/01/13 05:09:04;;;;;;;27.38;17.52;;;;;;;;;;4797942;29;20047;-79
2024/01/13 05:11:30;;;;;;;25.48;17.77;;;;;;;;;;4794527;29;20091;-79
2024/01/13 05:13:57;;;;;;;28.90;18.67;;;;;;;;;;4792851;29;20051;-79
2024/01/13 05:16:23;;;;;;;27.35;18.05;;;;;;;;;;4789045;29;20795;-79
2024/01/13 05:18:50;;;;;;;27.15;17.40;;;;;;;;;;4808091;29;20617;-80
2024/01/13 05:21:16;;;;;;;26.15;17.65;;;;;;;;;;4798858;29;20141;-78
2024/01/13 05:23:43;;;;;;;28.30;17.75;;;;;;;;;;4803535;29;20059;-78
2024/01/13 05:26:10;;;;;;;28.52;18.95;;;;;;;;;;4795729;29;20110;-80
2024/01/13 05:28:36;;;;;;;29.17;17.35;;;;;;;;;;4802012;29;20770;-79
2024/01/13 05:31:02;;;;;;;27.58;18.92;;;;;;;;;;4793801;29;20065;-80
2024/01/13 05:33:29;;;;;;;25.00;18.17;;;;;;;;;;4803145;29;20062;-77
2024/01/13 05:35:56;;;;;;;31.40;17.83;;;;;;;;;;4780124;29;20356;-79
2024/01/13 05:38:22;;;;;;;27.67;17.77;;;;;;;;;;4795762;29;20077;-80
2024/01/13 05:40:49;;;;;;;25.70;18.27;;;;;;;;;;4801636;29;20062;-82
2024/01/13 05:43:15;;;;;;;29.80;18.70;;;;;;;;;;4798396;29;20161;-80
2024/01/13 05:45:43;;;;;;;29.88;20.20;;;;;;;;;;4801272;29;20058;-79
2024/01/13 05:48:10;;;;;;;25.13;17.30;;;;;;;;;;4801633;29;20116;-80
2024/01/13 05:50:37;;;;;;;25.05;17.38;;;;;;;;;;4797550;29;20069;-80
2024/01/13 05:53:03;;;;;;;26.30;18.00;;;;;;;;;;4793051;29;20059;-84
2024/01/13 05:55:30;;;;;;;30.52;18.55;;;;;;;;;;4796632;29;20085;-79
2024/01/13 05:57:57;;;;;;;27.75;18.63;;;;;;;;;;4793143;29;20055;-80
2024/01/13 06:00:24;;;;;;;27.88;17.83;;;;;;;;;;4792291;29;20110;-79
2024/01/13 06:02:50;;;;;;;21.63;16.25;;;;;;;;;;4797432;29;20054;-79
2024/01/13 06:05:17;;;;;;;26.73;17.27;;;;;;;;;;4792502;29;20128;-80
2024/01/13 06:07:43;;;;;;;25.08;16.80;;;;;;;;;;4792929;29;20046;-80
2024/01/13 06:10:10;;;;;;;22.98;15.43;;;;;;;;;;4794604;29;20054;-80
2024/01/13 06:12:36;;;;;;;27.80;15.63;;;;;;;;;;4808983;29;20059;-77
2024/01/13 06:15:03;;;;;;;22.45;14.65;;;;;;;;;;4787513;29;20086;-78
2024/01/13 06:17:30;;;;;;;21.65;14.93;;;;;;;;;;4795200;29;20058;-80
2024/01/13 06:19:57;;;;;;;19.15;13.75;;;;;;;;;;4799356;29;20063;-79
2024/01/13 06:22:23;;;;;;;22.90;14.68;;;;;;;;;;4805981;29;20458;-80
2024/01/13 06:24:50;;;;;;;20.40;14.18;;;;;;;;;;4799314;29;20497;-80
2024/01/13 06:27:16;;;;;;;21.73;14.57;;;;;;;;;;4791371;29;20807;-79
2024/01/13 06:29:43;;;;;;;19.10;13.40;;;;;;;;;;4793314;29;20059;-79
2024/01/13 06:32:09;;;;;;;22.65;15.70;;;;;;;;;;4808910;29;20083;-80
2024/01/13 06:34:36;;;;;;;20.73;14.18;;;;;;;;;;4786006;29;20066;-79
2024/01/13 06:37:03;;;;;;;22.50;13.85;;;;;;;;;;4804024;29;20055;-80
2024/01/13 06:39:30;;;;;;;24.50;14.85;;;;;;;;;;4793452;29;20097;-79
2024/01/13 06:41:56;;;;;;;24.08;15.10;;;;;;;;;;4809798;29;20077;-79
2024/01/13 06:44:23;;;;;;;22.55;15.00;;;;;;;;;;4793558;29;20111;-80
2024/01/13 06:47:03;;;;;;;23.98;13.77;;;;;;;;;;4799997;29;20055;-80
2024/01/13 06:49:29;;;;;;;25.73;14.35;;;;;;;;;;4803013;29;20133;-79
2024/01/13 06:51:56;;;;;;;29.77;15.63;;;;;;;;;;4808266;29;20468;-81
2024/01/13 06:54:22;;;;;;;25.05;14.38;;;;;;;;;;4802659;29;20066;-80
2024/01/13 06:56:49;;;;;;;25.00;13.15;;;;;;;;;;4790033;29;20054;-78
2024/01/13 06:59:16;;;;;;;25.08;13.13;;;;;;;;;;4796109;29;20513;-78
2024/01/13 07:01:42;;;;;;;24.08;13.05;;;;;;;;;;4796730;29;20054;-78
2024/01/13 07:04:09;;;;;;;24.23;12.95;;;;;;;;;;4797502;29;20172;-80
2024/01/13 07:06:36;;;;;;;19.77;11.73;;;;;;;;;;4802481;29;20108;-80
2024/01/13 07:09:03;;;;;;;25.27;13.68;;;;;;;;;;4794266;29;20058;-80
2024/01/13 07:11:30;;;;;;;28.65;14.90;;;;;;;;;;4787510;29;20063;-80
2024/01/13 07:13:56;;;;;;;28.35;15.07;;;;;;;;;;4806886;29;20078;-81
2024/01/13 07:16:23;;;;;;;24.25;12.55;;;;;;;;;;4808406;29;20151;-82
2024/01/13 07:18:49;;;;;;;26.63;12.98;;;;;;;;;;4807540;29;20100;-80
2024/01/13 07:21:16;;;;;;;24.98;13.70;;;;;;;;;;4804812;29;20061;-80
2024/01/13 07:23:43;;;;;;;28.15;13.20;;;;;;;;;;4806258;29;20090;-80
2024/01/13 07:26:10;;;;;;;22.73;12.25;;;;;;;;;;4804775;29;20059;-81
2024/01/13 07:28:36;;;;;;;26.20;13.60;;;;;;;;;;4793248;29;20080;-79
2024/01/13 07:31:03;;;;;;;25.38;13.50;;;;;;;;;;4805632;29;20151;-79
2024/01/13 07:33:30;;;;;;;25.75;13.82;;;;;;;;;;4807101;29;20059;-81
2024/01/13 07:35:57;;;;;;;24.13;13.23;;;;;;;;;;4800070;29;20066;-80
2024/01/13 07:38:24;;;;;;;25.45;13.15;;;;;;;;;;4796563;29;20105;-81
2024/01/13 07:40:50;;;;;;;25.85;12.98;;;;;;;;;;4804534;29;20150;-78
2024/01/13 07:43:16;;;;;;;30.80;14.63;;;;;;;;;;4814401;29;20055;-81
2024/01/13 07:45:43;;;;;;;28.63;14.68;;;;;;;;;;4795723;29;20058;-81
2024/01/13 07:48:09;;;;;;;27.38;13.63;;;;;;;;;;4801299;29;20055;-81
2024/01/13 07:50:36;;;;;;;22.88;11.88;;;;;;;;;;4798446;29;20074;-79
2024/01/13 07:53:03;;;;;;;27.45;14.43;;;;;;;;;;4799397;29;20138;-82
2024/01/13 07:55:29;;;;;;;24.77;12.70;;;;;;;;;;4789868;29;20244;-81
2024/01/13 07:57:56;;;;;;;27.45;13.90;;;;;;;;;;4798818;29;20058;-81
2024/01/13 08:00:23;;;;;;;30.27;15.13;;;;;;;;;;4814436;29;20419;-81
2024/01/13 08:02:50;;;;;;;31.73;16.30;;;;;;;;;;4795491;29;20054;-81
2024/01/13 08:05:16;;;;;;;28.67;14.85;;;;;;;;;;4800112;29;20114;-81
2024/01/13 08:07:42;;;;;;;27.90;14.80;;;;;;;;;;4788820;29;20043;-78
2024/01/13 08:10:09;;;;;;;32.28;16.15;;;;;;;;;;4804673;29;20050;-82
2024/01/13 08:12:36;;;;;;;29.17;15.63;;;;;;;;;;4799111;29;20055;-81
2024/01/13 08:15:03;;;;;;;30.77;15.75;;;;;;;;;;4796481;29;20062;-82
2024/01/13 08:17:30;;;;;;;28.63;14.88;;;;;;;;;;4800864;29;20115;-82
2024/01/13 08:19:57;;;;;;;28.90;16.38;;;;;;;;;;4796091;29;20051;-82
2024/01/13 08:22:23;;;;;;;33.90;17.45;;;;;;;;;;4797313;29;20054;-82
2024/01/13 08:24:50;;;;;;;36.38;17.58;;;;;;;;;;4802974;29;20458;-81
2024/01/13 08:27:16;;;;;;;31.08;16.65;;;;;;;;;;4792445;29;20058;-82
2024/01/13 08:29:43;;;;;;;29.40;15.80;;;;;;;;;;4812762;29;20381;-82
2024/01/13 08:32:10;;;;;;;29.63;16.08;;;;;;;;;;4792606;29;20047;-81
2024/01/13 08:34:39;;;;;;;31.27;16.38;;;;;;;;;;4794307;29;20059;-80
2024/01/13 08:37:06;;;;;;;31.88;16.80;;;;;;;;;;4800812;29;20145;-79
2024/01/13 08:39:33;;;;;;;28.50;16.88;;;;;;;;;;4809935;29;20115;-82
2024/01/13 08:42:00;;;;;;;30.20;17.25;;;;;;;;;;4799923;29;20774;-81
2024/01/13 08:44:27;;;;;;;29.80;16.27;;;;;;;;;;4785880;29;20144;-80
2024/01/13 08:46:53;;;;;;;33.20;16.98;;;;;;;;;;4799951;29;20050;-84
2024/01/13 08:49:21;;;;;;;26.45;16.65;;;;;;;;;;4795623;29;20061;-80
2024/01/13 08:51:48;;;;;;;31.63;18.17;;;;;;;;;;4796425;29;20142;-81
2024/01/13 08:54:14;;;;;;;33.15;18.85;;;;;;;;;;4797526;29;20058;-81
2024/01/13 08:56:41;;;;;;;28.65;16.83;;;;;;;;;;4808206;29;20108;-81
2024/01/13 08:59:10;;;;;;;29.13;17.00;;;;;;;;;;4798353;29;20055;-81
2024/01/13 09:01:37;;;;;;;31.70;17.98;;;;;;;;;;4796902;29;20065;-82
2024/01/13 09:04:07;;;;;;;27.92;16.63;;;;;;;;;;4805723;29;20142;-80
2024/01/13 09:06:33;;;;;;;30.25;16.90;;;;;;;;;;4795444;29;20054;-78
2024/01/13 09:09:00;;;;;;;32.35;18.52;;;;;;;;;;4809380;29;20150;-81
2024/01/13 09:11:27;;;;;;;29.55;16.83;;;;;;;;;;4795723;29;20087;-80
2024/01/13 09:14:07;;;;;;;30.17;16.75;;;;;;;;;;4776332;29;20063;-80
2024/01/13 09:16:34;;;;;;;30.02;17.98;;;;;;;;;;4805627;29;20055;-81
2024/01/13 09:19:00;;;;;;;27.75;16.77;;;;;;;;;;4790957;29;20066;-81
2024/01/13 09:21:27;;;;;;;25.23;16.40;;;;;;;;;;4798656;29;20111;-81
2024/01/13 09:24:06;;;;;;;23.73;14.43;;;;;;;;;;4812293;29;20905;-81
2024/01/13 09:26:39;;;;;;;26.87;16.00;;;;;;;;;;4795309;29;20053;-82
2024/01/13 09:29:05;;;;;;;23.95;15.43;;;;;;;;;;4810161;29;20294;-81
2024/01/13 09:31:32;;;;;;;25.10;16.33;;;;;;;;;;4795999;29;20063;-81
2024/01/13 09:34:07;;;;;;;25.08;15.85;;;;;;;;;;4804166;29;20329;-79
2024/01/13 09:36:36;;;;;;;24.13;15.60;;;;;;;;;;4793261;29;20091;-81
2024/01/13 09:39:03;;;;;;;23.58;14.90;;;;;;;;;;4796879;29;20477;-80
2024/01/13 09:41:29;;;;;;;26.75;17.77;;;;;;;;;;4807490;29;20059;-81
2024/01/13 09:44:16;;;;;;;26.20;15.15;;;;;;;;;;4806792;29;20413;-82
2024/01/13 09:46:42;;;;;;;29.92;16.90;;;;;;;;;;4789753;29;20055;-80
2024/01/13 09:49:12;;;;;;;24.23;16.23;;;;;;;;;;4781045;29;20444;-81
2024/01/13 09:51:40;;;;;;;24.55;14.40;;;;;;;;;;4806147;29;20082;-81
2024/01/13 09:54:10;;;;;;;22.67;14.75;;;;;;;;;;4783694;29;20058;-78
2024/01/13 09:56:42;;;;;;;22.90;14.07;;;;;;;;;;4793596;29;20133;-77
2024/01/13 09:59:09;;;;;;;22.45;13.43;;;;;;;;;;4798727;29;20050;-80
2024/01/13 10:01:36;;;;;;;20.17;12.52;;;;;;;;;;4789652;29;20059;-80
2024/01/13 10:04:02;;;;;;;19.02;12.55;;;;;;;;;;4789110;29;20063;-81
2024/01/13 10:06:31;;;;;;;22.30;12.38;;;;;;;;;;4787642;29;20080;-79
2024/01/13 10:08:57;;;;;;;23.02;12.57;;;;;;;;;;4796492;29;20062;-80
2024/01/13 10:11:38;;;;;;;20.55;13.00;;;;;;;;;;4793613;29;20061;-79
2024/01/13 10:14:05;;;;;;;24.88;13.07;;;;;;;;;;4807607;29;20653;-78
2024/01/13 10:16:32;;;;;;;20.15;12.40;;;;;;;;;;4793746;29;20434;-79
2024/01/13 10:19:02;;;;;;;21.63;12.23;;;;;;;;;;4791509;29;20051;-81
2024/01/13 10:21:29;;;;;;;19.52;11.98;;;;;;;;;;4796705;29;20735;-79
2024/01/13 10:24:05;;;;;;;19.35;12.68;;;;;;;;;;4794568;29;20781;-79
2024/01/13 10:26:32;;;;;;;21.65;13.52;;;;;;;;;;4801886;29;20774;-79
2024/01/13 10:28:59;;;;;;;17.85;11.68;;;;;;;;;;4809715;29;20055;-77
2024/01/13 10:31:25;;;;;;;19.48;12.98;;;;;;;;;;4799233;29;20051;-79
2024/01/13 10:34:02;;;;;;;19.13;12.82;;;;;;;;;;4801409;29;20119;-78
2024/01/13 10:36:30;;;;;;;20.42;12.43;;;;;;;;;;4796323;29;20201;-81
2024/01/13 10:38:58;;;;;;;18.90;13.07;;;;;;;;;;4815050;29;20055;-77
2024/01/13 10:41:28;;;;;;;23.58;13.55;;;;;;;;;;4809931;29;20081;-78
2024/01/13 10:44:01;;;;;;;21.15;12.93;;;;;;;;;;4797038;29;20130;-81
2024/01/13 10:46:28;;;;;;;25.23;14.90;;;;;;;;;;4798514;29;20699;-79
2024/01/13 10:49:02;;;;;;;22.35;13.90;;;;;;;;;;4794403;29;20093;-79
2024/01/13 10:51:33;;;;;;;23.67;14.52;;;;;;;;;;4796073;29;20081;-77
2024/01/13 10:54:01;;;;;;;24.88;14.30;;;;;;;;;;4794810;29;20059;-79
2024/01/13 10:56:31;;;;;;;21.30;13.60;;;;;;;;;;4801799;29;20078;-79
2024/01/13 10:58:58;;;;;;;21.05;13.95;;;;;;;;;;4798192;29;20449;-78
2024/01/13 11:01:25;;;;;;;21.30;14.05;;;;;;;;;;4811055;29;20410;-81
2024/01/13 11:04:01;;;;;;;26.52;14.20;;;;;;;;;;4814395;29;20141;-80
2024/01/13 11:06:28;;;;;;;21.83;13.38;;;;;;;;;;4808714;29;20059;-80
2024/01/13 11:08:55;;;;;;;20.58;13.98;;;;;;;;;;4809916;29;20062;-80
2024/01/13 11:11:24;;;;;;;18.25;12.90;;;;;;;;;;4797359;29;20832;-81
2024/01/13 11:14:14;;;;;;;19.30;13.23;;;;;;;;;;4809291;29;20055;-80
2024/01/13 11:16:44;;;;;;;19.00;13.00;;;;;;;;;;4797108;29;20063;-80
2024/01/13 11:19:11;;;;;;;18.73;12.73;;;;;;;;;;4802407;29;20057;-80
2024/01/13 11:21:39;;;;;;;18.55;12.82;;;;;;;;;;4802303;29;20570;-73
2024/01/13 11:24:13;;;;;;;20.75;12.68;;;;;;;;;;4794142;29;20288;-79
2024/01/13 11:26:41;;;;;;;18.10;11.68;;;;;;;;;;4798348;29;20058;-79
2024/01/13 11:29:28;;;;;;;19.10;11.95;;;;;;;;;;4791688;29;20064;-79
2024/01/13 11:31:55;;;;;;;22.88;12.00;;;;;;;;;;4810795;29;20059;-76
2024/01/13 11:34:22;;;;;;;19.50;12.75;;;;;;;;;;4794476;29;20135;-79
2024/01/13 11:36:51;;;;;;;18.45;12.73;;;;;;;;;;4802932;29;20050;-79
2024/01/13 11:39:19;;;;;;;20.50;12.57;;;;;;;;;;4817369;29;20051;-79
2024/01/13 11:41:50;;;;;;;20.42;12.63;;;;;;;;;;4798199;29;20525;-78
2024/01/13 11:44:19;;;;;;;20.65;13.23;;;;;;;;;;4805272;29;20051;-78
2024/01/13 11:46:58;;;;;;;21.30;13.48;;;;;;;;;;4799203;29;20463;-79
2024/01/13 11:49:28;;;;;;;20.58;12.63;;;;;;;;;;4806729;29;20096;-79
2024/01/13 11:51:56;;;;;;;21.10;13.63;;;;;;;;;;4802354;29;20067;-78
2024/01/13 11:54:23;;;;;;;23.48;14.30;;;;;;;;;;4804333;29;20054;-78
2024/01/13 11:56:50;;;;;;;21.92;13.48;;;;;;;;;;4802148;29;20051;-78
2024/01/13 11:59:17;;;;;;;28.50;15.52;;;;;;;;;;4812136;29;20078;-78
2024/01/13 12:01:44;;;;;;;29.92;15.68;;;;;;;;;;4805832;29;20125;-78
2024/01/13 12:04:11;;;;;;;23.17;14.15;;;;;;;;;;4800724;29;20567;-78
2024/01/13 12:06:40;;;;;;;24.75;14.75;;;;;;;;;;4805284;29;20050;-77
2024/01/13 12:09:07;;;;;;;27.52;14.98;;;;;;;;;;4801470;29;20051;-77
2024/01/13 12:11:33;;;;;;;25.25;14.80;;;;;;;;;;4793181;29;20650;-77
2024/01/13 12:14:04;;;;;;;26.20;15.32;;;;;;;;;;4800608;29;20089;-77
2024/01/13 12:16:31;;;;;;;29.70;15.77;;;;;;;;;;4805807;29;20058;-76
2024/01/13 12:18:58;;;;;;;30.65;16.13;;;;;;;;;;4814125;29;20061;-78
2024/01/13 12:21:25;;;;;;;26.33;15.73;;;;;;;;;;4813518;29;20409;-76
2024/01/13 12:24:08;;;;;;;27.17;15.20;;;;;;;;;;4804521;29;20745;-77
2024/01/13 12:26:35;;;;;;;;;;;;;;;;;;4803617;29;20060;-77
2024/01/13 12:29:01;;;;;;;26.92;16.70;;;;;;;;;;4795983;29;19998;-74
2024/01/13 12:31:28;;;;;;;28.63;16.58;;;;;;;;;;4802723;29;20361;-77
2024/01/13 12:34:08;;;;;;;31.40;17.63;;;;;;;;;;4796476;29;20066;-77
2024/01/13 12:36:35;;;;;;;30.83;17.77;;;;;;;;;;4807023;29;20388;-78
2024/01/13 12:39:02;;;;;;;29.38;16.88;;;;;;;;;;4814463;29;20297;-78
2024/01/13 12:41:29;;;;;;;29.65;17.73;;;;;;;;;;4801306;29;20063;-80
2024/01/13 12:44:03;;;;;;;34.78;19.13;;;;;;;;;;4801532;29;20051;-79
2024/01/13 12:46:34;;;;;;;33.88;19.13;;;;;;;;;;4806330;29;20066;-78
2024/01/13 12:49:14;;;;;;;34.30;19.77;;;;;;;;;;4802064;29;20711;-76
2024/01/13 12:51:45;;;;;;;37.92;21.15;;;;;;;;;;4799255;29;20071;-79
2024/01/13 12:54:15;;;;;;;38.03;21.63;;;;;;;;;;4819572;29;20055;-78
2024/01/13 12:56:43;;;;;;;35.88;21.27;;;;;;;;;;4805733;29;20741;-78
2024/01/13 12:59:14;;;;;;;38.20;22.15;;;;;;;;;;4802978;29;20436;-79
2024/01/13 13:01:41;;;;;;;38.30;21.08;;;;;;;;;;4806807;29;20055;-78
2024/01/13 13:04:08;;;;;;;36.65;20.88;;;;;;;;;;4797588;29;20119;-79
2024/01/13 13:06:35;;;;;;;36.50;21.50;;;;;;;;;;4799113;29;20065;-77
2024/01/13 13:09:04;;;;;;;38.47;21.95;;;;;;;;;;4796318;29;20506;-77
2024/01/13 13:11:31;;;;;;;39.40;21.92;;;;;;;;;;4794978;29;20062;-78
2024/01/13 13:13:58;;;;;;;35.20;20.92;;;;;;;;;;4801433;29;20070;-78
2024/01/13 13:16:24;;;;;;;40.63;21.60;;;;;;;;;;4801587;29;20127;-78
2024/01/13 13:18:51;;;;;;;37.90;21.70;;;;;;;;;;4791611;29;20055;-78
2024/01/13 13:21:18;;;;;;;35.50;19.33;;;;;;;;;;4800013;29;20803;-79
2024/01/13 13:23:46;;;;;;;37.45;21.92;;;;;;;;;;4817618;29;20112;-76
2024/01/13 13:26:13;;;;;;;35.70;19.83;;;;;;;;;;4810954;29;20112;-78
2024/01/13 13:28:41;;;;;;;37.75;21.67;;;;;;;;;;4800356;29;20058;-79
2024/01/13 13:31:08;;;;;;;36.38;22.15;;;;;;;;;;4820389;29;20177;-78
2024/01/13 13:33:39;;;;;;;38.50;22.05;;;;;;;;;;4800057;29;20173;-79
2024/01/13 13:36:06;;;;;;;38.85;22.75;;;;;;;;;;4815182;29;20233;-77
2024/01/13 13:38:32;;;;;;;40.58;23.02;;;;;;;;;;4791054;29;20464;-77
2024/01/13 13:40:59;;;;;;;41.33;22.75;;;;;;;;;;4818380;29;20063;-78
2024/01/13 13:43:28;;;;;;;40.70;24.27;;;;;;;;;;4803393;29;20055;-78
2024/01/13 13:45:55;;;;;;;40.42;23.45;;;;;;;;;;4796327;29;20063;-77
2024/01/13 13:48:23;;;;;;;35.88;22.30;;;;;;;;;;4806137;29;20053;-77
2024/01/13 13:50:50;;;;;;;38.20;23.63;;;;;;;;;;4811767;29;20083;-76
2024/01/13 13:53:17;;;;;;;37.97;21.55;;;;;;;;;;4795631;29;20051;-76
2024/01/13 13:55:44;;;;;;;40.35;22.85;;;;;;;;;;4802140;29;20130;-76
2024/01/13 13:58:11;;;;;;;42.25;23.63;;;;;;;;;;4793382;29;20050;-76
2024/01/13 14:00:38;;;;;;;41.30;24.83;;;;;;;;;;4800201;29;20043;-76
2024/01/13 14:03:05;;;;;;;37.83;20.88;;;;;;;;;;4796323;29;20054;-76
2024/01/13 14:05:31;;;;;;;38.90;22.20;;;;;;;;;;4803081;29;20054;-76
2024/01/13 14:07:58;;;;;;;42.65;23.33;;;;;;;;;;4802345;29;20051;-76
2024/01/13 14:10:24;;;;;;;40.00;22.83;;;;;;;;;;4816088;29;20129;-76
2024/01/13 14:12:51;;;;;;;39.92;22.63;;;;;;;;;;4798343;29;20047;-73
2024/01/13 14:15:17;;;;;;;40.40;22.33;;;;;;;;;;4793835;29;20134;-76
2024/01/13 14:17:45;;;;;;;38.88;20.05;;;;;;;;;;4803097;29;20054;-77
2024/01/13 14:20:13;;;;;;;36.78;22.10;;;;;;;;;;4813693;29;20058;-77
2024/01/13 14:22:47;;;;;;;40.38;22.30;;;;;;;;;;4799320;29;20051;-75
2024/01/13 14:25:16;;;;;;;36.58;21.35;;;;;;;;;;4804001;29;20063;-77